Aviation Digital Data Service (ADDS)

Output produced by METARs form (0023 UTC 20 April 2019)
found at http://www.aviationweather.gov/metar/data/
 
Forecast for: LUKK (CHISINAU INTL , MD)
Text: TAF LUKK 192320Z 2000/2024 01008KT CAVOK
Forecast period: 0000 to 1800 UTC 20 April 2019
Forecast type: FROM: standard forecast or significant change
Winds: from the N (10 degrees) at 9 MPH (8 knots; 4.1 m/s)
Visibility: 6 or more miles 10+ km)
Ceiling: unknown
Clouds: missing
Weather: NSW  (no significant weather)
Text: TEMPO 2002/2005 5000 BR
Forecast period: 0200 to 0500 UTC 20 April 2019
Forecast type: TEMPORARY: The following changes expected for less than half the time period
Visibility: 3 miles (5 km)
Ceiling: unknown
Clouds: missing
Weather: BR  (mist)
Text: BECMG 2018/2020 VRB05KT
Forecast period: 1800 UTC 20 April 2019 to 0000 UTC 21 April 2019
Forecast type: BECOMING: Conditions expected to become as follows by 2000 UTC 20 April 2019
Winds: variable direction winds at 6 MPH (5 knots; 2.6 m/s)
Visibility: 6 or more miles 10+ km)
Ceiling: unknown
Clouds: missing
Weather: NSW  (no significant weather)